Time,TemperatureF,DewpointF,PressureIn,WindDirection,WindDirectionDegrees,WindSpeedMPH,WindSpeedGustMPH,Humidity,HourlyPrecipIn,Conditions,Clouds,dailyrainin,SoftwareType,DateUTC
2013-02-18 00:08:00,-999.0,-99.9,29.98,North,-999,-999.0,-999.0,-999,0.00,,,0.00,weatherlink.com 1.10,2013-02-18 06:08:00,
2013-02-18 00:23:00,-999.0,-99.9,29.99,North,-999,-999.0,-999.0,-999,0.00,,,0.00,weatherlink.com 1.10,2013-02-18 06:23:00,
2013-02-18 00:39:00,-999.0,-99.9,29.98,North,-999,-999.0,-999.0,-999,0.00,,,0.00,weatherlink.com 1.10,2013-02-18 06:39:00,
2013-02-18 00:54:00,-999.0,-99.9,29.98,North,-999,-999.0,-999.0,-999,0.00,,,0.00,weatherlink.com 1.10,2013-02-18 06:54:00,
2013-02-18 01:09:00,-999.0,-99.9,29.98,North,-999,-999.0,-999.0,-999,0.00,,,0.00,weatherlink.com 1.10,2013-02-18 07:09:00,
2013-02-18 01:24:00,-999.0,-99.9,29.98,North,-999,-999.0,-999.0,-999,0.00,,,0.00,weatherlink.com 1.10,2013-02-18 07:24:00,
2013-02-18 01:39:00,-999.0,-99.9,29.96,North,-999,-999.0,-999.0,-999,0.00,,,0.00,weatherlink.com 1.10,2013-02-18 07:39:00,
2013-02-18 01:54:00,-999.0,-99.9,29.97,North,-999,-999.0,-999.0,-999,0.00,,,0.00,weatherlink.com 1.10,2013-02-18 07:54:00,
2013-02-18 02:09:00,-999.0,-99.9,29.96,North,-999,-999.0,-999.0,-999,0.00,,,0.00,weatherlink.com 1.10,2013-02-18 08:09:00,
2013-02-18 02:24:00,-999.0,-99.9,29.95,North,-999,-999.0,-999.0,-999,0.00,,,0.00,weatherlink.com 1.10,2013-02-18 08:24:00,
2013-02-18 02:39:00,-999.0,-99.9,29.95,North,-999,-999.0,-999.0,-999,0.00,,,0.00,weatherlink.com 1.10,2013-02-18 08:39:00,
2013-02-18 02:55:00,-999.0,-99.9,29.94,North,-999,-999.0,-999.0,-999,0.00,,,0.00,weatherlink.com 1.10,2013-02-18 08:55:00,
2013-02-18 03:10:00,-999.0,-99.9,29.94,North,-999,-999.0,-999.0,-999,0.00,,,0.00,weatherlink.com 1.10,2013-02-18 09:10:00,
2013-02-18 03:24:00,-999.0,-99.9,29.93,North,-999,-999.0,-999.0,-999,0.00,,,0.00,weatherlink.com 1.10,2013-02-18 09:24:00,
2013-02-18 03:40:00,-999.0,-99.9,29.92,North,-999,-999.0,-999.0,-999,0.00,,,0.00,weatherlink.com 1.10,2013-02-18 09:40:00,
2013-02-18 03:54:00,-999.0,-99.9,29.91,North,-999,-999.0,-999.0,-999,0.00,,,0.00,weatherlink.com 1.10,2013-02-18 09:54:00,
2013-02-18 04:10:00,-999.0,-99.9,29.91,North,-999,-999.0,-999.0,-999,0.00,,,0.00,weatherlink.com 1.10,2013-02-18 10:10:00,
2013-02-18 04:25:00,-999.0,-99.9,29.91,North,-999,-999.0,-999.0,-999,0.00,,,0.00,weatherlink.com 1.10,2013-02-18 10:25:00,
2013-02-18 04:40:00,-999.0,-99.9,29.90,North,-999,-999.0,-999.0,-999,0.00,,,0.00,weatherlink.com 1.10,2013-02-18 10:40:00,
2013-02-18 04:55:00,-999.0,-99.9,29.89,North,-999,-999.0,-999.0,-999,0.00,,,0.00,weatherlink.com 1.10,2013-02-18 10:55:00,
2013-02-18 05:10:00,-999.0,-99.9,29.90,North,-999,-999.0,-999.0,-999,0.00,,,0.00,weatherlink.com 1.10,2013-02-18 11:10:00,
2013-02-18 05:25:00,-999.0,-99.9,29.89,North,-999,-999.0,-999.0,-999,0.00,,,0.00,weatherlink.com 1.10,2013-02-18 11:25:00,
2013-02-18 05:40:00,-999.0,-99.9,29.89,North,-999,-999.0,-999.0,-999,0.00,,,0.00,weatherlink.com 1.10,2013-02-18 11:40:00,
2013-02-18 05:55:00,-999.0,-99.9,29.89,North,-999,-999.0,-999.0,-999,0.00,,,0.00,weatherlink.com 1.10,2013-02-18 11:55:00,
2013-02-18 06:10:00,-999.0,-99.9,29.89,North,-999,-999.0,-999.0,-999,0.00,,,0.00,weatherlink.com 1.10,2013-02-18 12:10:00,
2013-02-18 06:25:00,-999.0,-99.9,29.89,North,-999,-999.0,-999.0,-999,0.00,,,0.00,weatherlink.com 1.10,2013-02-18 12:25:00,
2013-02-18 06:40:00,-999.0,-99.9,29.89,North,-999,-999.0,-999.0,-999,0.00,,,0.00,weatherlink.com 1.10,2013-02-18 12:40:00,
2013-02-18 06:55:00,-999.0,-99.9,29.89,North,-999,-999.0,-999.0,-999,0.00,,,0.00,weatherlink.com 1.10,2013-02-18 12:55:00,
2013-02-18 07:10:00,-999.0,-99.9,29.90,North,-999,-999.0,-999.0,-999,0.00,,,0.00,weatherlink.com 1.10,2013-02-18 13:10:00,
2013-02-18 07:26:00,-999.0,-99.9,29.90,North,-999,-999.0,-999.0,-999,0.00,,,0.00,weatherlink.com 1.10,2013-02-18 13:26:00,
2013-02-18 07:41:00,-999.0,-99.9,29.90,North,-999,-999.0,-999.0,-999,0.00,,,0.00,weatherlink.com 1.10,2013-02-18 13:41:00,
2013-02-18 07:56:00,-999.0,-99.9,29.91,North,-999,-999.0,-999.0,-999,0.00,,,0.00,weatherlink.com 1.10,2013-02-18 13:56:00,
2013-02-18 08:11:00,-999.0,-99.9,29.91,North,-999,-999.0,-999.0,-999,0.00,,,0.00,weatherlink.com 1.10,2013-02-18 14:11:00,
2013-02-18 08:26:00,-999.0,-99.9,29.92,North,-999,-999.0,-999.0,-999,0.00,,,0.00,weatherlink.com 1.10,2013-02-18 14:26:00,
2013-02-18 08:41:00,-999.0,-99.9,29.93,North,-999,-999.0,-999.0,-999,0.00,,,0.00,weatherlink.com 1.10,2013-02-18 14:41:00,
2013-02-18 08:56:00,-999.0,-99.9,29.93,North,-999,-999.0,-999.0,-999,0.00,,,0.00,weatherlink.com 1.10,2013-02-18 14:56:00,
2013-02-18 09:11:00,-999.0,-99.9,29.93,North,-999,-999.0,-999.0,-999,0.00,,,0.00,weatherlink.com 1.10,2013-02-18 15:11:00,
2013-02-18 09:26:00,-999.0,-99.9,29.93,North,-999,-999.0,-999.0,-999,0.00,,,0.00,weatherlink.com 1.10,2013-02-18 15:26:00,
2013-02-18 09:41:00,-999.0,-99.9,29.93,North,-999,-999.0,-999.0,-999,0.00,,,0.00,weatherlink.com 1.10,2013-02-18 15:41:00,
2013-02-18 09:57:00,-999.0,-99.9,29.93,North,-999,-999.0,-999.0,-999,0.00,,,0.00,weatherlink.com 1.10,2013-02-18 15:57:00,
2013-02-18 10:11:00,-999.0,-99.9,29.93,North,-999,-999.0,-999.0,-999,0.00,,,0.00,weatherlink.com 1.10,2013-02-18 16:11:00,
2013-02-18 10:26:00,-999.0,-99.9,29.93,North,-999,-999.0,-999.0,-999,0.00,,,0.00,weatherlink.com 1.10,2013-02-18 16:26:00,
2013-02-18 10:41:00,-999.0,-99.9,29.92,North,-999,-999.0,-999.0,-999,0.00,,,0.00,weatherlink.com 1.10,2013-02-18 16:41:00,
2013-02-18 10:57:00,67.5,63.0,29.92,South,171,16.0,26.0,84,0.00,,,0.00,weatherlink.com 1.10,2013-02-18 16:57:00,
2013-02-18 11:12:00,67.9,63.0,29.92,South,181,15.0,26.0,85,0.00,,,0.00,weatherlink.com 1.10,2013-02-18 17:12:00,
2013-02-18 11:27:00,68.0,63.0,29.92,SE,129,9.0,23.0,84,0.00,,,0.00,weatherlink.com 1.10,2013-02-18 17:27:00,
2013-02-18 11:42:00,67.8,63.0,29.92,South,181,13.0,22.0,84,0.00,,,0.00,weatherlink.com 1.10,2013-02-18 17:42:00,
2013-02-18 11:57:00,67.2,63.0,29.92,SSE,163,14.0,23.0,85,0.00,,,0.00,weatherlink.com 1.10,2013-02-18 17:57:00,
2013-02-18 12:12:00,67.6,63.0,29.93,South,171,11.0,21.0,85,0.00,,,0.00,weatherlink.com 1.10,2013-02-18 18:12:00,
2013-02-18 12:27:00,67.9,63.0,29.92,SSE,150,11.0,20.0,85,0.00,,,0.00,weatherlink.com 1.10,2013-02-18 18:27:00,
2013-02-18 12:42:00,68.2,63.0,29.91,SE,143,8.0,20.0,84,0.00,,,0.00,weatherlink.com 1.10,2013-02-18 18:42:00,
2013-02-18 12:57:00,69.3,64.0,29.90,SSE,148,14.0,21.0,82,0.00,,,0.00,weatherlink.com 1.10,2013-02-18 18:57:00,
2013-02-18 13:12:00,70.0,64.0,29.89,SSE,163,13.0,24.0,81,0.00,,,0.00,weatherlink.com 1.10,2013-02-18 19:12:00,
2013-02-18 13:27:00,69.5,63.0,29.88,SSE,158,15.0,25.0,81,0.00,,,0.00,weatherlink.com 1.10,2013-02-18 19:27:00,
2013-02-18 13:42:00,69.6,64.0,29.88,SSE,167,16.0,24.0,81,0.00,,,0.00,weatherlink.com 1.10,2013-02-18 19:42:00,
2013-02-18 13:57:00,70.1,64.0,29.89,SSE,166,16.0,22.0,80,0.00,,,0.00,weatherlink.com 1.10,2013-02-18 19:57:00,
2013-02-18 14:27:00,70.2,64.0,29.85,SE,146,13.0,26.0,80,0.00,,,0.00,weatherlink.com 1.10,2013-02-18 20:27:00,
2013-02-18 14:42:00,70.8,64.0,29.85,SSE,165,15.0,24.0,79,0.00,,,0.00,weatherlink.com 1.10,2013-02-18 20:42:00,
2013-02-18 14:57:00,70.5,64.0,29.85,SSE,158,20.0,25.0,79,0.00,,,0.00,weatherlink.com 1.10,2013-02-18 20:57:00,
2013-02-18 15:12:00,69.6,63.0,29.84,SSE,160,18.0,24.0,80,0.00,,,0.00,weatherlink.com 1.10,2013-02-18 21:12:00,
2013-02-18 15:27:00,70.1,63.0,29.85,SSE,156,14.0,22.0,79,0.00,,,0.00,weatherlink.com 1.10,2013-02-18 21:27:00,
2013-02-18 15:42:00,70.0,63.0,29.84,SE,146,11.0,26.0,79,0.00,,,0.00,weatherlink.com 1.10,2013-02-18 21:42:00,
2013-02-18 15:57:00,69.6,63.0,29.84,SSE,155,14.0,28.0,79,0.00,,,0.00,weatherlink.com 1.10,2013-02-18 21:57:00,
2013-02-18 16:12:00,69.5,63.0,29.85,SSE,153,13.0,26.0,79,0.00,,,0.00,weatherlink.com 1.10,2013-02-18 22:12:00,
2013-02-18 16:27:00,69.5,63.0,29.85,South,171,14.0,24.0,79,0.00,,,0.00,weatherlink.com 1.10,2013-02-18 22:27:00,
2013-02-18 16:42:00,69.2,63.0,29.85,South,173,11.0,21.0,80,0.00,,,0.00,weatherlink.com 1.10,2013-02-18 22:42:00,
2013-02-18 16:57:00,68.7,63.0,29.84,SE,139,12.0,23.0,81,0.00,,,0.00,weatherlink.com 1.10,2013-02-18 22:57:00,
2013-02-18 17:12:00,68.3,62.0,29.84,SSE,149,11.0,24.0,81,0.00,,,0.00,weatherlink.com 1.10,2013-02-18 23:12:00,
2013-02-18 17:27:00,68.2,63.0,29.84,South,173,21.0,25.0,82,0.00,,,0.00,weatherlink.com 1.10,2013-02-18 23:27:00,
2013-02-18 17:42:00,67.8,63.0,29.85,South,172,18.0,26.0,83,0.00,,,0.00,weatherlink.com 1.10,2013-02-18 23:42:00,
2013-02-18 17:57:00,67.1,62.0,29.85,SSE,165,8.0,20.0,84,0.00,,,0.00,weatherlink.com 1.10,2013-02-18 23:57:00,
2013-02-18 18:12:00,66.5,62.0,29.86,SSE,150,15.0,19.0,85,0.00,,,0.00,weatherlink.com 1.10,2013-02-19 00:12:00,
2013-02-18 18:27:00,66.0,62.0,29.86,SSE,148,12.0,16.0,87,0.00,,,0.00,weatherlink.com 1.10,2013-02-19 00:27:00,
2013-02-18 18:42:00,65.9,62.0,29.87,South,174,12.0,19.0,87,0.00,,,0.00,weatherlink.com 1.10,2013-02-19 00:42:00,
2013-02-18 18:57:00,65.9,62.0,29.88,SSE,157,12.0,19.0,88,0.00,,,0.00,weatherlink.com 1.10,2013-02-19 00:57:00,
2013-02-18 19:12:00,65.9,62.0,29.89,SSE,167,11.0,18.0,88,0.00,,,0.00,weatherlink.com 1.10,2013-02-19 01:12:00,
2013-02-18 19:27:00,-999.0,-99.9,29.89,North,-999,-999.0,-999.0,-999,0.00,,,0.00,weatherlink.com 1.10,2013-02-19 01:27:00,
2013-02-18 19:43:00,-999.0,-99.9,29.90,North,-999,-999.0,-999.0,-999,0.00,,,0.00,weatherlink.com 1.10,2013-02-19 01:43:00,
2013-02-18 19:57:00,-999.0,-99.9,29.91,North,-999,-999.0,-999.0,-999,0.00,,,0.00,weatherlink.com 1.10,2013-02-19 01:57:00,
2013-02-18 20:12:00,-999.0,-99.9,29.92,North,-999,-999.0,-999.0,-999,0.00,,,0.00,weatherlink.com 1.10,2013-02-19 02:12:00,
2013-02-18 20:27:00,-999.0,-99.9,29.92,North,-999,-999.0,-999.0,-999,0.00,,,0.00,weatherlink.com 1.10,2013-02-19 02:27:00,
2013-02-18 20:43:00,-999.0,-99.9,29.93,North,-999,-999.0,-999.0,-999,0.00,,,0.00,weatherlink.com 1.10,2013-02-19 02:43:00,
2013-02-18 20:58:00,-999.0,-99.9,29.94,North,-999,-999.0,-999.0,-999,0.00,,,0.00,weatherlink.com 1.10,2013-02-19 02:58:00,
2013-02-18 21:13:00,-999.0,-99.9,29.95,North,-999,-999.0,-999.0,-999,0.00,,,0.00,weatherlink.com 1.10,2013-02-19 03:13:00,
2013-02-18 21:29:00,-999.0,-99.9,29.95,North,-999,-999.0,-999.0,-999,0.00,,,0.00,weatherlink.com 1.10,2013-02-19 03:29:00,
2013-02-18 21:43:00,-999.0,-99.9,29.96,North,-999,-999.0,-999.0,-999,0.00,,,0.00,weatherlink.com 1.10,2013-02-19 03:43:00,
2013-02-18 21:58:00,-999.0,-99.9,29.96,North,-999,-999.0,-999.0,-999,0.00,,,0.00,weatherlink.com 1.10,2013-02-19 03:58:00,
2013-02-18 22:13:00,-999.0,-99.9,29.97,North,-999,-999.0,-999.0,-999,0.00,,,0.00,weatherlink.com 1.10,2013-02-19 04:13:00,
2013-02-18 22:28:00,-999.0,-99.9,29.98,North,-999,-999.0,-999.0,-999,0.00,,,0.00,weatherlink.com 1.10,2013-02-19 04:28:00,
2013-02-18 22:43:00,-999.0,-99.9,29.98,North,-999,-999.0,-999.0,-999,0.00,,,0.00,weatherlink.com 1.10,2013-02-19 04:43:00,
2013-02-18 22:58:00,-999.0,-99.9,29.99,North,-999,-999.0,-999.0,-999,0.00,,,0.00,weatherlink.com 1.10,2013-02-19 04:58:00,
2013-02-18 23:13:00,-999.0,-99.9,29.99,North,-999,-999.0,-999.0,-999,0.00,,,0.00,weatherlink.com 1.10,2013-02-19 05:13:00,
2013-02-18 23:28:00,-999.0,-99.9,29.98,North,-999,-999.0,-999.0,-999,0.00,,,0.00,weatherlink.com 1.10,2013-02-19 05:28:00,
2013-02-18 23:59:00,-999.0,-99.9,29.98,North,-999,-999.0,-999.0,-999,0.00,,,0.00,weatherlink.com 1.10,2013-02-19 05:59:00,